Cudahy, WI (53110)

9:19 AM CDT on September 03, 2015 (GMT -0500)
E Layton | | Change Station
CLOSE
Current Station
Personal Weather Station
Location: Cudahy, WI
Elevation: 712 ft
Nearby Weather Stations

Elev 712 ft 42.96 °N, 87.86 °W | Updated 10 seconds ago

Scattered Clouds
Scattered Clouds
76.7 °F
Feels Like 78 °F
N
0.0
Wind Variable Wind from SSW
Gusts 3.0 mph

Today
High -- | Low -- °F
--% Chance of Precip.
Yesterday
High -- | Low -- °F
Precip. -- in
6:17 AM 7:23 PM
Waning Gibbous, 70% visible
Pressure 29.91 in
Visibility 8.0 miles
Clouds Scattered Clouds 25000 ft
Heat Index 78 °F
Dew Point 70 °F
Humidity 81%
Rainfall 0.00 in
Snow Depth Not available.
UV 2 out of 12
Pollen 4.10 out of 12
Air Quality Not available.
Flu Activity Not available.
METAR KMKE 031352Z 27006KT 8SM SCT250 24/20 A2992 RMK AO2 SLP127 T02440200
Pressure 29.91 in
Visibility 8.0 miles
Clouds Scattered Clouds 25000 ft
Heat Index 78 °F
Dew Point 70 °F
Humidity 81%
Rainfall 0.00 in
Snow Depth Not available.
UV 2 out of 12
Pollen 4.10 out of 12
Air Quality Not available.
Flu Activity Not available.
METAR KMKE 031352Z 27006KT 8SM SCT250 24/20 A2992 RMK AO2 SLP127 T02440200

10-Day Weather Forecast

×

Almanac

Astronomy

Sep. 03, 2015 Rise Set
Actual Time
Civil Twilight
Nautical Twilight
Astronomical Twilight
Moon
Length of Visible Light
Length of Day
Tomorrow will be .
, % of the Moon is Illuminated

Today's Extremes

State Highs State Lows

Community

WunderPhotos

Upload Photos

1,851,959 photos uploaded!

WunderBlogs® & News

Nearby

Air Quality

  Air Quality AQ Index Pollutant
Not available.

Snow Depth

Station Depth Elevation

Earthquake Activity

City Distance Mag. Time & Date
Minimum magnitude displayed is 2.5.

Coastal Water Temperatures

Place Temperature

Stations

Nearby Weather Stations

Station Location Temp. Windchill Dew Point Humidity Wind Precip. Elev Updated Type